Time;durP1;ratioP1;P1;durP2;ratioP2;P2;SDS_P1;SDS_P2;PMS_P1;PMS_P2;Temp;Humidity;BMP_temperature;BMP_pressure;BME280_temperature;BME280_humidity;BME280_pressure;Samples;Min_cycle;Max_cycle;Signal;HPM_P1;HPM_P2
2022/07/02 00:01:49;;;;;;;0.50;0.50;;;11.70;99.90;;;;;;4998347;28;20026;-37
2022/07/02 00:04:19;;;;;;;0.40;0.40;;;11.70;99.90;;;;;;4999902;28;20559;-35
2022/07/02 00:06:47;;;;;;;0.65;0.52;;;11.70;99.90;;;;;;4992641;28;20041;-35
2022/07/02 00:09:13;;;;;;;0.65;0.65;;;11.70;99.90;;;;;;4994546;28;20853;-36
2022/07/02 00:11:41;;;;;;;1.35;1.10;;;11.70;99.90;;;;;;4995830;28;20064;-38
2022/07/02 00:14:08;;;;;;;0.90;0.90;;;11.70;99.90;;;;;;5000375;28;20045;-35
2022/07/02 00:16:35;;;;;;;2.63;0.90;;;11.60;99.90;;;;;;4999365;28;20037;-37
2022/07/02 00:19:01;;;;;;;1.20;0.90;;;11.70;99.90;;;;;;4995300;28;20034;-36
2022/07/02 00:21:27;;;;;;;0.80;0.80;;;11.60;99.90;;;;;;4992090;28;20034;-37
2022/07/02 00:23:53;;;;;;;0.90;0.90;;;11.40;99.90;;;;;;4998428;28;20030;-35
2022/07/02 00:26:31;;;;;;;0.95;0.93;;;11.40;99.90;;;;;;4994904;28;20462;-37
2022/07/02 00:29:12;;;;;;;0.85;0.85;;;11.40;99.90;;;;;;4996357;28;20345;-37
2022/07/02 00:31:38;;;;;;;0.90;0.90;;;11.40;99.90;;;;;;4994548;28;20143;-35
2022/07/02 00:34:05;;;;;;;0.85;0.85;;;11.30;99.90;;;;;;5000645;28;20041;-38
2022/07/02 00:36:32;;;;;;;1.33;0.57;;;11.30;99.90;;;;;;4986892;28;20073;-37
2022/07/02 00:38:58;;;;;;;0.77;0.77;;;11.20;99.90;;;;;;5000706;28;20022;-38
2022/07/02 00:41:26;;;;;;;1.65;0.80;;;11.20;99.90;;;;;;4998657;28;20026;-36
2022/07/02 00:43:53;;;;;;;0.60;0.60;;;11.20;99.90;;;;;;4999463;28;20022;-37
2022/07/02 00:46:21;;;;;;;0.95;0.50;;;11.20;99.90;;;;;;4985733;28;20084;-38
2022/07/02 00:48:47;;;;;;;0.70;0.70;;;11.20;99.90;;;;;;4994413;28;20519;-38
2022/07/02 00:51:12;;;;;;;0.88;0.50;;;11.20;99.90;;;;;;4992624;28;20073;-36
2022/07/02 00:53:38;;;;;;;0.70;0.70;;;11.10;99.90;;;;;;4995264;28;20471;-36
2022/07/02 00:56:04;;;;;;;0.55;0.55;;;11.00;99.90;;;;;;4995407;28;20046;-34
2022/07/02 00:58:31;;;;;;;1.67;0.95;;;11.00;99.90;;;;;;4995080;28;20504;-35
2022/07/02 01:00:58;;;;;;;0.80;0.80;;;10.90;99.90;;;;;;4994395;28;20048;-37
2022/07/02 01:03:25;;;;;;;0.80;0.80;;;10.90;99.90;;;;;;4983725;28;20094;-38
2022/07/02 01:05:52;;;;;;;2.45;1.20;;;10.70;99.90;;;;;;4998037;28;20096;-37
2022/07/02 01:11:05;;;;;;;1.50;1.20;;;10.80;99.90;;;;;;4996792;28;20037;-34
2022/07/02 01:13:34;;;;;;;3.50;1.20;;;10.90;99.90;;;;;;4993987;28;20483;-34
2022/07/02 01:16:00;;;;;;;1.40;1.30;;;10.90;99.90;;;;;;4998536;28;20032;-38
2022/07/02 01:18:26;;;;;;;1.20;1.00;;;10.70;99.90;;;;;;5000662;28;20072;-36
2022/07/02 01:20:52;;;;;;;0.80;0.80;;;10.60;99.90;;;;;;4999619;28;20026;-36
2022/07/02 01:23:18;;;;;;;1.90;0.88;;;10.70;99.90;;;;;;4994895;28;20026;-36
2022/07/02 01:25:51;;;;;;;2.17;1.00;;;10.70;99.90;;;;;;4998170;28;20376;-37
2022/07/02 01:28:17;;;;;;;1.00;0.98;;;10.70;99.90;;;;;;4996968;28;20038;-35
2022/07/02 01:30:43;;;;;;;0.95;0.95;;;10.80;99.90;;;;;;4997162;28;20042;-35
2022/07/02 01:33:09;;;;;;;0.70;0.70;;;10.70;99.90;;;;;;4998344;28;20038;-38
2022/07/02 01:35:35;;;;;;;1.23;0.95;;;10.70;99.90;;;;;;4993838;28;20042;-36
2022/07/02 01:38:01;;;;;;;0.70;0.70;;;10.70;99.90;;;;;;4997534;28;20026;-36
2022/07/02 01:40:26;;;;;;;1.65;1.30;;;10.80;99.90;;;;;;4996044;28;20045;-38
2022/07/02 01:42:52;;;;;;;0.88;0.88;;;10.70;99.90;;;;;;4997339;28;20028;-36
2022/07/02 01:45:18;;;;;;;1.20;1.10;;;10.70;99.90;;;;;;4995874;28;20414;-38
2022/07/02 01:47:43;;;;;;;1.38;1.10;;;10.70;99.90;;;;;;4993932;28;20056;-36
2022/07/02 01:50:09;;;;;;;1.23;1.13;;;10.70;99.90;;;;;;4995041;28;20368;-34
2022/07/02 01:52:35;;;;;;;0.75;0.73;;;10.60;99.90;;;;;;4994854;28;20046;-35
2022/07/02 01:55:01;;;;;;;0.80;0.80;;;10.60;99.90;;;;;;4995436;28;20538;-36
2022/07/02 01:57:30;;;;;;;0.82;0.82;;;10.60;99.90;;;;;;4995275;28;20077;-37
2022/07/02 01:59:56;;;;;;;0.88;0.88;;;10.60;99.90;;;;;;4997192;28;20034;-34
2022/07/02 02:02:22;;;;;;;0.80;0.80;;;10.40;99.90;;;;;;4989380;28;20038;-34
2022/07/02 02:04:48;;;;;;;0.82;0.82;;;10.40;99.90;;;;;;4994367;28;20578;-37
2022/07/02 02:07:14;;;;;;;1.02;1.02;;;10.40;99.90;;;;;;4994379;28;20103;-35
2022/07/02 02:09:39;;;;;;;0.80;0.80;;;10.40;99.90;;;;;;4995634;28;20072;-37
2022/07/02 02:12:05;;;;;;;1.15;1.00;;;10.40;99.90;;;;;;4993746;28;20064;-37
2022/07/02 02:14:31;;;;;;;2.00;1.10;;;10.50;99.90;;;;;;4990538;28;20034;-38
2022/07/02 02:16:56;;;;;;;0.93;0.93;;;10.30;99.90;;;;;;4993105;28;20041;-36
2022/07/02 02:19:22;;;;;;;1.90;1.00;;;10.30;99.90;;;;;;4993418;28;20403;-37
2022/07/02 02:21:48;;;;;;;2.05;1.58;;;10.40;99.90;;;;;;4993139;28;20029;-38
2022/07/02 02:24:13;;;;;;;1.88;1.75;;;10.20;99.90;;;;;;4992657;28;20023;-36
2022/07/02 02:26:39;;;;;;;3.20;1.70;;;10.10;99.90;;;;;;4992736;28;20285;-35
2022/07/02 02:29:04;;;;;;;5.03;3.55;;;10.10;99.90;;;;;;4990096;28;20034;-38
2022/07/02 02:31:30;;;;;;;2.47;1.33;;;10.00;99.90;;;;;;4994950;28;20619;-35
2022/07/02 02:33:56;;;;;;;1.48;1.23;;;9.80;99.90;;;;;;4995059;28;20026;-35
2022/07/02 02:36:21;;;;;;;1.00;1.00;;;9.60;99.90;;;;;;4989623;28;20057;-37
2022/07/02 02:38:48;;;;;;;0.82;0.82;;;9.50;99.90;;;;;;4992127;28;20503;-36
2022/07/02 02:41:14;;;;;;;1.02;0.80;;;9.50;99.90;;;;;;4999893;28;20045;-36
2022/07/02 02:43:39;;;;;;;1.00;1.00;;;9.70;99.90;;;;;;4995271;28;20747;-37
2022/07/02 02:46:06;;;;;;;0.70;0.70;;;9.80;99.90;;;;;;4996805;28;20037;-37
2022/07/02 02:48:34;;;;;;;0.80;0.80;;;9.90;99.90;;;;;;4991223;28;20404;-36
2022/07/02 02:51:00;;;;;;;;;;;9.90;99.90;;;;;;4994224;28;20033;-38
2022/07/02 02:53:25;;;;;;;0.63;0.63;;;9.90;99.90;;;;;;4992282;28;20279;-38
2022/07/02 02:55:51;;;;;;;0.88;0.88;;;10.00;99.90;;;;;;4991556;28;20125;-36
2022/07/02 02:58:17;;;;;;;1.05;1.00;;;10.00;99.90;;;;;;4992031;28;20030;-35
2022/07/02 03:00:43;;;;;;;0.95;0.95;;;10.10;99.90;;;;;;4990021;28;20041;-37
2022/07/02 03:03:08;;;;;;;1.30;1.20;;;10.10;99.90;;;;;;4992719;28;20754;-35
2022/07/02 03:05:34;;;;;;;0.85;0.85;;;10.20;99.90;;;;;;4992136;28;20403;-36
2022/07/02 03:08:00;;;;;;;2.03;1.30;;;10.10;99.90;;;;;;4990473;28;20399;-38
2022/07/02 03:10:25;;;;;;;0.93;0.93;;;10.20;99.90;;;;;;4990526;28;20038;-37
2022/07/02 03:12:51;;;;;;;0.70;0.70;;;10.10;99.90;;;;;;4993974;28;20038;-38
2022/07/02 03:15:17;;;;;;;1.00;0.70;;;10.10;99.90;;;;;;4995502;28;20034;-38
2022/07/02 03:17:42;;;;;;;1.17;0.60;;;9.90;99.90;;;;;;4990545;28;20044;-35
2022/07/02 03:20:09;;;;;;;2.20;0.90;;;9.80;99.90;;;;;;4984474;28;20065;-38
2022/07/02 03:22:34;;;;;;;2.47;0.88;;;9.80;99.90;;;;;;4987750;28;20027;-38
2022/07/02 03:25:00;;;;;;;0.80;0.80;;;9.80;99.90;;;;;;4990301;28;20029;-35
2022/07/02 03:27:26;;;;;;;1.00;0.90;;;9.90;99.90;;;;;;4995149;28;20032;-36
2022/07/02 03:29:52;;;;;;;3.38;0.95;;;9.80;99.90;;;;;;4989970;28;20061;-38
2022/07/02 03:32:18;;;;;;;2.42;1.10;;;9.80;99.90;;;;;;4992355;28;20038;-37
2022/07/02 03:34:44;;;;;;;1.33;1.23;;;9.80;99.90;;;;;;4991902;28;20045;-34
2022/07/02 03:37:10;;;;;;;4.13;1.23;;;9.80;99.90;;;;;;4994402;28;20065;-38
2022/07/02 03:39:36;;;;;;;1.40;1.20;;;9.80;99.90;;;;;;4991931;28;20431;-37
2022/07/02 03:42:02;;;;;;;2.30;1.23;;;9.80;99.90;;;;;;4994727;28;20064;-36
2022/07/02 03:44:28;;;;;;;1.52;1.42;;;9.80;99.90;;;;;;4992510;28;20022;-37
2022/07/02 03:46:54;;;;;;;2.13;1.10;;;9.80;99.90;;;;;;4993617;28;20038;-35
2022/07/02 03:49:19;;;;;;;2.83;0.90;;;9.80;99.90;;;;;;4991359;28;20445;-36
2022/07/02 03:51:45;;;;;;;1.00;1.00;;;9.70;99.90;;;;;;4990896;28;20026;-36
2022/07/02 03:54:10;;;;;;;1.13;1.00;;;9.70;99.90;;;;;;4993677;28;20375;-38
2022/07/02 03:56:36;;;;;;;0.80;0.80;;;9.80;99.90;;;;;;4994885;28;20031;-36
2022/07/02 03:59:02;;;;;;;0.98;0.98;;;9.80;99.90;;;;;;4995423;28;20443;-36
2022/07/02 04:01:27;;;;;;;1.77;1.00;;;9.80;99.90;;;;;;4996217;28;20070;-36
2022/07/02 04:03:53;;;;;;;1.15;1.10;;;9.80;99.90;;;;;;4992276;28;20036;-35
2022/07/02 04:06:19;;;;;;;1.20;1.10;;;9.80;99.90;;;;;;4996959;28;20030;-38
2022/07/02 04:08:44;;;;;;;1.23;1.00;;;9.80;99.90;;;;;;4995016;28;20034;-36
2022/07/02 04:11:10;;;;;;;2.33;1.00;;;9.80;99.90;;;;;;4993835;28;20037;-36
2022/07/02 04:13:35;;;;;;;1.63;1.40;;;9.90;99.90;;;;;;4997712;28;20030;-36
2022/07/02 04:16:01;;;;;;;1.35;1.25;;;9.90;99.90;;;;;;4995689;28;20084;-38
2022/07/02 04:18:27;;;;;;;1.33;1.10;;;9.90;99.90;;;;;;4995942;28;20044;-36
2022/07/02 04:20:52;;;;;;;1.73;1.63;;;10.00;99.90;;;;;;5006374;28;20029;-34
2022/07/02 04:23:18;;;;;;;1.60;1.40;;;10.00;99.90;;;;;;5006090;28;20621;-35
2022/07/02 04:25:43;;;;;;;1.77;1.48;;;10.10;99.90;;;;;;5000015;28;20378;-35
2022/07/02 04:28:10;;;;;;;1.85;1.40;;;10.10;99.90;;;;;;5009595;28;20095;-35
2022/07/02 04:30:36;;;;;;;2.13;1.92;;;10.20;99.90;;;;;;5008061;28;20120;-36
2022/07/02 04:33:02;;;;;;;7.13;2.35;;;10.20;99.90;;;;;;5002675;28;20117;-37
2022/07/02 04:35:28;;;;;;;2.75;2.40;;;10.20;99.90;;;;;;5003421;28;20764;-37
2022/07/02 04:37:54;;;;;;;2.45;2.05;;;10.10;99.90;;;;;;5003619;28;20036;-38
2022/07/02 04:40:19;;;;;;;2.42;2.10;;;10.10;99.90;;;;;;5003557;28;20203;-35
2022/07/02 04:42:45;;;;;;;2.60;2.00;;;10.30;99.90;;;;;;5004457;28;20041;-36
2022/07/02 04:45:11;;;;;;;1.95;1.80;;;10.30;99.90;;;;;;5004536;28;20432;-35
2022/07/02 04:47:36;;;;;;;4.88;2.70;;;10.40;99.90;;;;;;5003172;28;20063;-36
2022/07/02 04:50:02;;;;;;;4.72;2.20;;;10.50;99.90;;;;;;5008635;28;20118;-37
2022/07/02 04:52:28;;;;;;;2.03;1.70;;;10.50;99.90;;;;;;5006284;28;20056;-34
2022/07/02 04:54:53;;;;;;;1.98;1.70;;;10.60;99.90;;;;;;5004393;28;20053;-34
2022/07/02 04:57:19;;;;;;;2.17;1.88;;;10.70;99.90;;;;;;5005864;28;20124;-34
2022/07/02 04:59:45;;;;;;;2.05;1.85;;;10.70;99.90;;;;;;5000882;28;20034;-34
2022/07/02 05:02:14;;;;;;;2.60;1.85;;;10.80;99.90;;;;;;5000533;28;20080;-37
2022/07/02 05:04:40;;;;;;;2.67;2.17;;;11.00;99.90;;;;;;4999677;28;20156;-34
2022/07/02 05:07:05;;;;;;;2.78;1.60;;;11.00;99.90;;;;;;5006964;28;20026;-36
2022/07/02 05:09:31;;;;;;;2.35;2.15;;;11.20;99.90;;;;;;4997104;28;20471;-35
2022/07/02 05:11:57;;;;;;;2.15;1.83;;;11.30;99.90;;;;;;5010866;28;20026;-34
2022/07/02 05:14:22;;;;;;;3.28;2.53;;;11.40;99.90;;;;;;5001328;28;20465;-34
2022/07/02 05:16:48;;;;;;;3.03;2.45;;;11.50;99.90;;;;;;4997690;28;20126;-34
2022/07/02 05:19:14;;;;;;;4.47;3.58;;;11.60;99.90;;;;;;5006531;28;20026;-35
2022/07/02 05:21:41;;;;;;;4.75;3.75;;;11.70;99.90;;;;;;5003695;28;20037;-36
2022/07/02 05:24:07;;;;;;;3.75;3.25;;;11.90;99.90;;;;;;4998914;28;20029;-34
2022/07/02 05:26:33;;;;;;;5.47;3.65;;;12.00;99.90;;;;;;4998575;28;20041;-35
2022/07/02 05:28:59;;;;;;;7.30;4.35;;;12.20;99.90;;;;;;5001102;28;20031;-38
2022/07/02 05:31:24;;;;;;;6.35;4.18;;;12.40;99.90;;;;;;5005663;28;20046;-34
2022/07/02 05:33:50;;;;;;;6.38;3.75;;;12.40;99.90;;;;;;5001942;28;22775;-36
2022/07/02 05:36:16;;;;;;;6.15;4.10;;;12.40;99.90;;;;;;5000952;28;20046;-35
2022/07/02 05:38:41;;;;;;;5.28;4.13;;;12.60;99.90;;;;;;5005060;28;20038;-36
2022/07/02 05:41:07;;;;;;;4.07;3.63;;;12.80;99.90;;;;;;5008657;28;20030;-38
2022/07/02 05:43:33;;;;;;;4.63;3.65;;;13.00;99.90;;;;;;5004162;28;20037;-35
2022/07/02 05:45:59;;;;;;;5.03;3.65;;;13.00;99.90;;;;;;4996563;28;20034;-38
2022/07/02 05:48:24;;;;;;;4.00;3.25;;;13.20;99.90;;;;;;4999101;28;20037;-38
2022/07/02 05:50:50;;;;;;;3.85;3.35;;;13.30;99.90;;;;;;5002388;28;20542;-34
2022/07/02 05:53:16;;;;;;;4.72;3.17;;;13.40;99.90;;;;;;4994747;28;20081;-38
2022/07/02 05:55:42;;;;;;;4.07;3.10;;;13.50;99.90;;;;;;4995274;28;20026;-37
2022/07/02 05:58:08;;;;;;;3.78;3.30;;;13.60;99.90;;;;;;4992867;28;20101;-38
2022/07/02 06:00:34;;;;;;;3.90;3.50;;;13.70;99.90;;;;;;4997543;28;20156;-35
2022/07/02 06:02:59;;;;;;;3.55;2.42;;;13.90;99.90;;;;;;5002220;28;20122;-34
2022/07/02 06:08:10;;;;;;;2.78;2.58;;;14.10;99.90;;;;;;5007510;28;20087;-38
2022/07/02 06:10:35;;;;;;;2.75;2.50;;;14.40;99.90;;;;;;4996786;28;20026;-36
2022/07/02 06:13:01;;;;;;;2.90;2.60;;;14.40;99.90;;;;;;4995880;28;20027;-37
2022/07/02 06:15:27;;;;;;;3.10;2.45;;;14.60;99.90;;;;;;4998253;28;20026;-35
2022/07/02 06:17:53;;;;;;;2.30;2.10;;;14.80;99.90;;;;;;4998307;28;20062;-35
2022/07/02 06:20:19;;;;;;;2.50;1.92;;;15.00;99.90;;;;;;4998245;28;20061;-36
2022/07/02 06:22:44;;;;;;;2.33;2.08;;;15.10;99.90;;;;;;5002025;28;20574;-37
2022/07/02 06:25:10;;;;;;;1.92;1.83;;;15.20;99.90;;;;;;5001629;28;20026;-35
2022/07/02 06:27:36;;;;;;;2.28;1.80;;;15.30;99.90;;;;;;4999020;28;20037;-35
2022/07/02 06:30:04;;;;;;;1.98;1.80;;;15.30;99.90;;;;;;5002218;28;20034;-38
2022/07/02 06:32:30;;;;;;;3.10;1.90;;;15.40;99.90;;;;;;4999629;28;20063;-34
2022/07/02 06:34:56;;;;;;;1.55;1.45;;;15.50;99.90;;;;;;4997386;28;20050;-37
2022/07/02 06:37:22;;;;;;;2.10;1.90;;;15.60;99.90;;;;;;5002307;28;20032;-35
2022/07/02 06:39:49;;;;;;;2.05;1.90;;;15.70;99.90;;;;;;5004014;28;20041;-35
2022/07/02 06:42:22;;;;;;;1.80;1.58;;;15.70;99.90;;;;;;4997675;28;20034;-37
2022/07/02 06:44:50;;;;;;;2.05;1.63;;;15.80;99.90;;;;;;4998812;28;20038;-35
2022/07/02 06:47:16;;;;;;;3.88;2.10;;;15.90;99.90;;;;;;5003138;28;20096;-35
2022/07/02 06:49:43;;;;;;;1.45;1.35;;;16.00;99.90;;;;;;4999320;28;20036;-34
2022/07/02 06:52:09;;;;;;;1.38;1.27;;;16.10;99.90;;;;;;5002819;28;20083;-39
2022/07/02 06:54:35;;;;;;;3.03;1.50;;;16.30;99.90;;;;;;4996774;28;20073;-37
2022/07/02 06:57:02;;;;;;;1.30;1.20;;;16.30;99.90;;;;;;5001480;28;20034;-39
2022/07/02 06:59:27;;;;;;;1.30;1.20;;;16.40;99.90;;;;;;5018292;28;20116;-38
2022/07/02 07:01:53;;;;;;;1.50;1.40;;;16.60;99.90;;;;;;5006507;28;20058;-36
2022/07/02 07:04:19;;;;;;;1.67;1.20;;;16.70;99.90;;;;;;5004893;28;20048;-36
2022/07/02 07:06:51;;;;;;;1.20;1.10;;;16.80;99.90;;;;;;5011014;28;20025;-37
2022/07/02 07:09:17;;;;;;;1.63;1.15;;;16.90;99.90;;;;;;5013484;28;20121;-36
2022/07/02 07:11:43;;;;;;;0.90;0.90;;;17.00;99.90;;;;;;5006413;28;20618;-38
2022/07/02 07:14:09;;;;;;;2.42;2.22;;;17.20;99.90;;;;;;4998033;28;20061;-37
2022/07/02 07:16:34;;;;;;;1.13;1.13;;;17.40;99.90;;;;;;5006908;28;20026;-40
2022/07/02 07:19:04;;;;;;;1.35;1.08;;;17.40;99.90;;;;;;5006640;28;20034;-40
2022/07/02 07:21:31;;;;;;;0.80;0.80;;;17.30;99.90;;;;;;5015745;28;20044;-37
2022/07/02 07:23:56;;;;;;;0.90;0.90;;;17.40;99.90;;;;;;5007364;28;20029;-37
2022/07/02 07:26:22;;;;;;;0.82;0.82;;;17.50;99.90;;;;;;5006244;28;20022;-40
2022/07/02 07:28:48;;;;;;;1.05;1.05;;;17.70;99.90;;;;;;5009699;28;20428;-38
2022/07/02 07:31:16;;;;;;;0.80;0.80;;;17.80;99.90;;;;;;5004479;28;20037;-38
2022/07/02 07:33:41;;;;;;;1.00;0.90;;;17.70;99.90;;;;;;5004078;28;20022;-40
2022/07/02 07:36:18;;;;;;;0.60;0.60;;;17.80;99.90;;;;;;5007160;28;20058;-40
2022/07/02 07:38:44;;;;;;;0.70;0.70;;;17.80;99.90;;;;;;5007375;28;20038;-39
2022/07/02 07:41:10;;;;;;;0.90;0.90;;;18.00;99.90;;;;;;5003149;28;20104;-37
2022/07/02 07:43:36;;;;;;;0.80;0.70;;;17.90;99.90;;;;;;5006858;28;20087;-36
2022/07/02 07:46:02;;;;;;;1.27;0.90;;;18.10;99.90;;;;;;5011855;28;20044;-40
2022/07/02 07:48:27;;;;;;;1.20;0.80;;;18.20;99.90;;;;;;5000583;28;20029;-37
2022/07/02 07:50:53;;;;;;;0.90;0.60;;;18.20;99.90;;;;;;5007048;28;20128;-37
2022/07/02 07:53:18;;;;;;;0.60;0.60;;;18.30;99.90;;;;;;5014837;28;20044;-39
2022/07/02 07:55:45;;;;;;;0.73;0.73;;;18.30;97.10;;;;;;5012313;28;20041;-38
2022/07/02 07:58:11;;;;;;;0.60;0.60;;;18.30;99.10;;;;;;5011986;28;20121;-36
2022/07/02 08:00:37;;;;;;;1.10;1.00;;;18.10;97.80;;;;;;5004308;28;20058;-36
2022/07/02 08:03:03;;;;;;;0.75;0.75;;;18.30;99.30;;;;;;5013006;28;20030;-39
2022/07/02 08:05:28;;;;;;;0.70;0.70;;;18.50;99.90;;;;;;5009619;28;20641;-37
2022/07/02 08:07:54;;;;;;;0.90;0.68;;;18.70;97.90;;;;;;5005250;28;20484;-38
2022/07/02 08:10:20;;;;;;;0.70;0.70;;;18.80;96.00;;;;;;5003230;28;20033;-39
2022/07/02 08:12:47;;;;;;;0.70;0.70;;;18.80;97.80;;;;;;4996116;28;20058;-40
2022/07/02 08:15:13;;;;;;;0.60;0.60;;;18.80;94.00;;;;;;5001027;28;20502;-40
2022/07/02 08:17:38;;;;;;;1.17;0.70;;;18.80;95.30;;;;;;5006951;28;20264;-38
2022/07/02 08:20:05;;;;;;;0.50;0.50;;;19.10;92.20;;;;;;5001294;28;20026;-39
2022/07/02 08:22:35;;;;;;;0.50;0.50;;;19.30;93.60;;;;;;5005664;28;20030;-38
2022/07/02 08:25:05;;;;;;;0.70;0.70;;;19.50;93.60;;;;;;5001821;28;20026;-37
2022/07/02 08:27:31;;;;;;;0.98;0.60;;;19.40;92.50;;;;;;4998556;28;20026;-39
2022/07/02 08:29:56;;;;;;;1.10;0.63;;;19.30;92.50;;;;;;5004220;28;20065;-39
2022/07/02 08:32:22;;;;;;;0.95;0.80;;;19.30;90.90;;;;;;5008846;28;20093;-38
2022/07/02 08:34:49;;;;;;;1.63;0.57;;;19.20;91.70;;;;;;5009178;28;20097;-37
2022/07/02 08:37:15;;;;;;;0.88;0.80;;;19.30;92.30;;;;;;5005584;28;20487;-40
2022/07/02 08:39:41;;;;;;;0.70;0.70;;;19.30;90.00;;;;;;5002300;28;20021;-39
2022/07/02 08:42:09;;;;;;;0.80;0.80;;;19.30;88.20;;;;;;4997893;28;20064;-39
2022/07/02 08:44:36;;;;;;;0.60;0.60;;;19.40;93.90;;;;;;5007920;28;20029;-39
2022/07/02 08:47:07;;;;;;;1.20;0.70;;;19.70;90.50;;;;;;5003825;28;20080;-37
2022/07/02 08:49:34;;;;;;;0.70;0.70;;;19.80;81.40;;;;;;5006104;28;20072;-39
2022/07/02 08:52:04;;;;;;;1.70;0.90;;;19.60;84.10;;;;;;5004965;28;20038;-38
2022/07/02 08:54:31;;;;;;;1.38;1.05;;;19.70;88.10;;;;;;5011792;28;20286;-38
2022/07/02 08:57:00;;;;;;;1.00;1.00;;;19.70;88.40;;;;;;5008202;28;20031;-40
2022/07/02 08:59:26;;;;;;;1.45;0.90;;;20.00;90.70;;;;;;5004033;28;20022;-39
2022/07/02 09:01:52;;;;;;;0.65;0.65;;;20.10;76.60;;;;;;5002297;28;20045;-36
2022/07/02 09:04:19;;;;;;;0.80;0.80;;;20.10;70.70;;;;;;5006974;28;20046;-38
2022/07/02 09:06:46;;;;;;;0.90;0.70;;;20.00;74.00;;;;;;5008524;28;20037;-39
2022/07/02 09:09:12;;;;;;;1.77;0.88;;;20.00;72.80;;;;;;5008999;28;20116;-38
2022/07/02 09:11:38;;;;;;;0.90;0.90;;;20.00;79.50;;;;;;5009779;28;20762;-40
2022/07/02 09:14:05;;;;;;;0.80;0.80;;;19.90;72.50;;;;;;5000390;28;20378;-40
2022/07/02 09:16:31;;;;;;;1.10;1.00;;;19.90;70.50;;;;;;5005920;28;20517;-38
2022/07/02 09:18:57;;;;;;;0.82;0.70;;;20.00;79.70;;;;;;5003172;28;20022;-37
2022/07/02 09:21:22;;;;;;;1.13;1.02;;;20.00;66.80;;;;;;5009119;28;20529;-37
2022/07/02 09:23:50;;;;;;;1.10;1.00;;;20.00;71.40;;;;;;5010571;28;20407;-37
2022/07/02 09:26:23;;;;;;;1.95;0.98;;;20.30;70.00;;;;;;5005276;28;20022;-38
2022/07/02 09:29:00;;;;;;;0.63;0.63;;;20.40;74.30;;;;;;5006573;28;20052;-39
2022/07/02 09:31:28;;;;;;;0.70;0.70;;;20.40;72.10;;;;;;5004922;28;20569;-38
2022/07/02 09:33:54;;;;;;;0.77;0.77;;;20.50;66.50;;;;;;5007140;28;20037;-40
2022/07/02 09:36:21;;;;;;;0.82;0.82;;;20.50;67.90;;;;;;5015419;28;20104;-37
2022/07/02 09:38:51;;;;;;;0.80;0.80;;;20.40;74.60;;;;;;5014741;28;20030;-40
2022/07/02 09:41:23;;;;;;;0.95;0.90;;;20.70;69.20;;;;;;5001881;28;20025;-40
2022/07/02 09:43:55;;;;;;;0.85;0.85;;;20.80;69.60;;;;;;5001095;28;20030;-39
2022/07/02 09:46:22;;;;;;;0.90;0.90;;;20.80;67.20;;;;;;4999038;28;20038;-38
2022/07/02 09:48:48;;;;;;;0.77;0.77;;;20.90;66.10;;;;;;4999629;28;20034;-40
2022/07/02 09:51:15;;;;;;;0.88;0.88;;;20.80;61.40;;;;;;5005719;28;20037;-40
2022/07/02 09:53:52;;;;;;;0.70;0.70;;;20.90;63.40;;;;;;5002012;28;20041;-40
2022/07/02 09:56:22;;;;;;;0.63;0.63;;;20.90;61.30;;;;;;5018077;28;20403;-40
2022/07/02 09:58:49;;;;;;;0.85;0.77;;;21.10;65.40;;;;;;5004358;28;20022;-38
2022/07/02 10:01:22;;;;;;;0.83;0.83;;;21.40;64.90;;;;;;5001380;28;20041;-39
2022/07/02 10:03:52;;;;;;;0.68;0.68;;;21.50;58.90;;;;;;4997425;28;20033;-40
2022/07/02 10:06:19;;;;;;;0.60;0.60;;;21.50;58.30;;;;;;5005739;28;20029;-39
2022/07/02 10:08:45;;;;;;;1.02;0.80;;;21.40;59.10;;;;;;5003451;28;20122;-39
2022/07/02 10:11:13;;;;;;;1.05;0.80;;;21.20;60.80;;;;;;4997959;28;20026;-39
2022/07/02 10:13:42;;;;;;;0.85;0.85;;;21.40;66.20;;;;;;5007401;28;20052;-38
2022/07/02 10:16:19;;;;;;;0.77;0.77;;;21.30;57.90;;;;;;5009174;28;20468;-40
2022/07/02 10:18:45;;;;;;;1.15;0.90;;;21.40;61.00;;;;;;5003156;28;20084;-38
2022/07/02 10:21:13;;;;;;;1.08;1.08;;;21.60;64.30;;;;;;4999583;28;20101;-38
2022/07/02 10:23:42;;;;;;;1.08;0.75;;;21.80;66.40;;;;;;5006556;28;20434;-39
2022/07/02 10:26:08;;;;;;;0.70;0.70;;;21.90;62.90;;;;;;5005787;28;20034;-40
2022/07/02 10:28:34;;;;;;;0.60;0.60;;;21.70;62.30;;;;;;5000382;28;20396;-38
2022/07/02 10:31:00;;;;;;;1.10;1.00;;;21.60;62.10;;;;;;5005748;28;20462;-38
2022/07/02 10:33:31;;;;;;;1.02;0.85;;;21.70;68.90;;;;;;5010737;28;20037;-38
2022/07/02 10:35:59;;;;;;;0.90;0.90;;;21.60;63.50;;;;;;5008693;28;20058;-39
2022/07/02 10:38:34;;;;;;;1.70;0.90;;;21.60;57.50;;;;;;5010677;28;20476;-38
2022/07/02 10:41:00;;;;;;;1.38;1.15;;;21.70;58.00;;;;;;5001309;28;20049;-37
2022/07/02 10:43:30;;;;;;;1.10;0.90;;;21.60;58.60;;;;;;5001559;28;20507;-39
2022/07/02 10:46:05;;;;;;;0.85;0.85;;;21.60;64.10;;;;;;5003752;28;20104;-40
2022/07/02 10:48:51;;;;;;;2.05;1.00;;;21.60;60.60;;;;;;5006345;28;20037;-39
2022/07/02 10:51:23;;;;;;;1.27;1.00;;;21.80;59.00;;;;;;5000921;28;20113;-40
2022/07/02 10:53:57;;;;;;;1.10;1.00;;;21.80;59.90;;;;;;5004083;28;20037;-38
2022/07/02 10:56:23;;;;;;;0.88;0.88;;;21.70;55.30;;;;;;4993674;28;20116;-40
2022/07/02 10:58:49;;;;;;;1.00;1.00;;;21.90;61.00;;;;;;4997422;28;20035;-38
2022/07/02 11:01:23;;;;;;;1.95;1.08;;;21.90;57.70;;;;;;4996196;28;20086;-40
2022/07/02 11:03:58;;;;;;;1.25;1.20;;;22.00;60.70;;;;;;4995549;28;20738;-40
2022/07/02 11:06:28;;;;;;;1.25;1.10;;;22.00;65.30;;;;;;4998025;28;20030;-40
2022/07/02 11:08:57;;;;;;;1.00;1.00;;;22.10;62.60;;;;;;4997011;28;20044;-38
2022/07/02 11:11:25;;;;;;;2.50;0.90;;;22.10;57.40;;;;;;4998670;28;20613;-39
2022/07/02 11:14:03;;;;;;;1.88;1.13;;;21.90;52.40;;;;;;4999465;28;20100;-41
2022/07/02 11:16:31;;;;;;;1.05;0.93;;;21.90;57.90;;;;;;4996336;28;20557;-41
2022/07/02 11:19:00;;;;;;;1.77;1.00;;;22.00;56.80;;;;;;4998461;28;20060;-37
2022/07/02 11:21:27;;;;;;;2.38;0.95;;;22.10;52.20;;;;;;4996695;28;20030;-40
2022/07/02 11:23:53;;;;;;;0.87;0.80;;;22.10;55.00;;;;;;4994410;28;20108;-36
2022/07/02 11:26:25;;;;;;;0.98;0.95;;;22.30;55.60;;;;;;4995505;28;20113;-39
2022/07/02 11:28:52;;;;;;;1.98;1.10;;;22.30;56.60;;;;;;4999077;28;20034;-37
2022/07/02 11:31:20;;;;;;;0.70;0.70;;;22.30;56.70;;;;;;4996773;28;20041;-37
2022/07/02 11:33:54;;;;;;;3.33;0.90;;;22.30;56.20;;;;;;4995440;28;20089;-39
2022/07/02 11:36:21;;;;;;;1.05;0.95;;;22.20;51.50;;;;;;4998789;28;20415;-40
2022/07/02 11:38:49;;;;;;;0.80;0.80;;;22.20;51.20;;;;;;4996367;28;20034;-37
2022/07/02 11:41:16;;;;;;;1.08;0.70;;;22.20;53.60;;;;;;4994457;28;20447;-40
2022/07/02 11:43:44;;;;;;;0.50;0.50;;;22.50;54.40;;;;;;4996023;28;20036;-40
2022/07/02 11:46:11;;;;;;;0.80;0.80;;;22.50;53.50;;;;;;4994364;28;20042;-39
2022/07/02 11:48:37;;;;;;;1.05;0.88;;;22.40;51.10;;;;;;4996983;28;20046;-37
2022/07/02 11:51:03;;;;;;;0.55;0.55;;;22.40;49.00;;;;;;4995887;28;20034;-40
2022/07/02 11:53:28;;;;;;;0.70;0.70;;;22.30;49.40;;;;;;4993203;28;20044;-39
2022/07/02 11:56:08;;;;;;;0.70;0.70;;;22.40;53.70;;;;;;4993335;28;20065;-38
2022/07/02 11:58:48;;;;;;;0.70;0.70;;;22.60;52.70;;;;;;4992107;28;20443;-40
2022/07/02 12:01:25;;;;;;;0.90;0.80;;;22.60;52.90;;;;;;4993860;28;20125;-40
2022/07/02 12:03:57;;;;;;;0.60;0.60;;;22.40;45.60;;;;;;4996724;28;20042;-38
2022/07/02 12:06:26;;;;;;;0.70;0.68;;;22.40;50.00;;;;;;4993631;28;20030;-38
2022/07/02 12:08:53;;;;;;;0.52;0.52;;;22.40;49.00;;;;;;4991112;28;20068;-39
2022/07/02 12:11:20;;;;;;;0.68;0.68;;;22.50;49.60;;;;;;4993317;28;20044;-40
2022/07/02 12:13:46;;;;;;;0.70;0.70;;;22.60;46.50;;;;;;4995832;28;20043;-40
2022/07/02 12:16:14;;;;;;;0.60;0.60;;;22.50;48.40;;;;;;4999554;28;20123;-37
2022/07/02 12:18:41;;;;;;;2.10;0.68;;;22.50;49.10;;;;;;5013484;28;20022;-37
2022/07/02 12:21:18;;;;;;;0.60;0.60;;;22.50;46.90;;;;;;5000563;28;20562;-40
2022/07/02 12:23:44;;;;;;;0.70;0.70;;;22.60;51.00;;;;;;5000701;28;20022;-37
2022/07/02 12:26:10;;;;;;;2.58;0.73;;;22.70;49.00;;;;;;4994393;28;20487;-40
2022/07/02 12:31:20;;;;;;;1.75;1.35;;;22.60;50.70;;;;;;5012542;28;20451;-38
2022/07/02 12:33:55;;;;;;;0.85;0.70;;;22.80;48.20;;;;;;5000915;28;20027;-41
2022/07/02 12:36:21;;;;;;;1.38;0.57;;;22.70;51.60;;;;;;5012726;28;20058;-41
2022/07/02 12:38:47;;;;;;;1.27;0.70;;;22.80;47.50;;;;;;5007249;28;20108;-37
2022/07/02 12:41:13;;;;;;;1.42;0.68;;;23.00;49.30;;;;;;5008741;28;20022;-40
2022/07/02 12:43:38;;;;;;;1.13;0.68;;;22.90;46.90;;;;;;5001552;28;20030;-40
2022/07/02 12:46:06;;;;;;;0.57;0.57;;;22.70;49.20;;;;;;5010460;28;20101;-39
2022/07/02 12:48:41;;;;;;;1.35;0.73;;;22.70;47.00;;;;;;5011453;28;20030;-40
2022/07/02 12:51:11;;;;;;;3.17;0.90;;;22.70;50.30;;;;;;5013587;28;20036;-39
2022/07/02 12:53:38;;;;;;;0.77;0.68;;;22.80;46.60;;;;;;5002492;28;20030;-40
2022/07/02 12:56:04;;;;;;;0.50;0.50;;;22.80;51.10;;;;;;5003315;28;20558;-37